createdAt,value
2023-08-08T00:09:16.595Z,81.8
2023-08-08T00:29:16.576Z,80.6
2023-08-08T00:49:16.549Z,81.1
2023-08-08T01:09:16.664Z,80.7
2023-08-08T01:29:16.502Z,82.2
2023-08-08T01:49:16.838Z,82.4
2023-08-08T02:09:16.809Z,82.7
2023-08-08T02:29:16.653Z,82.9
2023-08-08T03:09:16.381Z,83.3
2023-08-08T03:29:16.430Z,83.0
2023-08-08T03:49:16.697Z,83.2
2023-08-08T04:09:16.451Z,82.7
2023-08-08T04:29:16.475Z,82.4
2023-08-08T04:49:16.589Z,82.1
2023-08-08T05:09:16.440Z,81.5
2023-08-08T05:29:16.543Z,82.0
2023-08-08T05:49:16.432Z,79.0
2023-08-08T06:09:16.548Z,78.7
2023-08-08T06:29:16.496Z,75.4
2023-08-08T06:49:16.479Z,74.3
2023-08-08T07:09:16.129Z,73.7
2023-08-08T07:29:16.180Z,72.9
2023-08-08T07:49:16.326Z,71.7
2023-08-08T08:09:16.176Z,68.8
2023-08-08T08:29:16.049Z,67.3
2023-08-08T08:49:16.315Z,68.1
2023-08-08T09:09:16.393Z,69.1
2023-08-08T09:29:16.341Z,65.3
2023-08-08T09:49:16.208Z,64.9
2023-08-08T10:09:15.958Z,64.6
2023-08-08T10:29:16.234Z,62.1
2023-08-08T10:49:16.307Z,61.4
2023-08-08T11:09:16.099Z,66.7
2023-08-08T11:29:16.106Z,68.0
2023-08-08T11:49:16.165Z,64.5
2023-08-08T12:09:16.061Z,59.2
2023-08-08T12:29:15.861Z,56.5
2023-08-08T12:49:15.920Z,60.8
2023-08-08T13:09:15.964Z,60.6
2023-08-08T13:29:15.645Z,59.6
2023-08-08T13:49:16.018Z,60.5
2023-08-08T14:09:15.772Z,59.3
2023-08-08T14:29:15.972Z,61.9
2023-08-08T14:49:15.855Z,63.2
2023-08-08T15:09:16.023Z,57.3
2023-08-08T15:29:15.730Z,59.4
2023-08-08T15:49:15.630Z,57.9
2023-08-08T16:09:15.584Z,63.8
2023-08-08T16:29:15.863Z,62.4
2023-08-08T16:49:15.867Z,62.3
2023-08-08T17:09:15.509Z,64.8
2023-08-08T17:29:15.635Z,67.2
2023-08-08T17:49:15.629Z,65.9
2023-08-08T18:09:15.405Z,69.2
2023-08-08T18:29:15.654Z,70.7
2023-08-08T18:49:15.409Z,71.8
2023-08-08T19:09:15.216Z,68.8
2023-08-08T19:29:15.204Z,72.6
2023-08-08T19:49:15.304Z,72.9
2023-08-08T20:09:15.289Z,72.6
2023-08-08T20:29:15.419Z,73.4
2023-08-08T20:49:15.259Z,73.8
2023-08-08T21:09:15.247Z,74.5
2023-08-08T21:29:15.096Z,76.6
2023-08-08T21:49:15.242Z,75.3
2023-08-08T22:09:15.082Z,75.1
2023-08-08T22:29:15.034Z,75.7
2023-08-08T22:49:15.168Z,75.0
2023-08-08T23:09:15.130Z,76.1
2023-08-08T23:29:15.050Z,76.8
2023-08-08T23:49:14.939Z,76.3
